Time;durP1;ratioP1;P1;durP2;ratioP2;P2;SDS_P1;SDS_P2;PMS_P1;PMS_P2;Temp;Humidity;BMP_temperature;BMP_pressure;BME280_temperature;BME280_humidity;BME280_pressure;Samples;Min_cycle;Max_cycle;Signal;HPM_P1;HPM_P2
2022/10/28 00:02:09;;;;;;;;;;;16.00;99.90;;;;;;5073545;28;19939;-73
2022/10/28 00:04:34;;;;;;;;;;;15.40;99.90;;;;;;5055319;28;19920;-73
2022/10/28 00:07:00;;;;;;;;;;;15.50;99.90;;;;;;5055681;28;19931;-71
2022/10/28 00:09:25;;;;;;;;;;;15.90;99.90;;;;;;5039145;28;20271;-71
2022/10/28 00:11:51;;;;;;;;;;;15.40;99.90;;;;;;5073597;28;19943;-71
2022/10/28 00:14:16;;;;;;;;;;;15.50;99.90;;;;;;5054887;28;19920;-71
2022/10/28 00:16:42;;;;;;;;;;;15.80;99.90;;;;;;5073591;28;19999;-71
2022/10/28 00:19:09;;;;;;;;;;;16.50;99.90;;;;;;5055268;28;19920;-72
2022/10/28 00:21:35;;;;;;;;;;;15.60;99.90;;;;;;5073270;28;20014;-71
2022/10/28 00:24:01;;;;;;;;;;;15.60;99.90;;;;;;5054310;28;19932;-71
2022/10/28 00:26:28;;;;;;;;;;;15.70;99.90;;;;;;5073345;28;19924;-71
2022/10/28 00:28:55;;;;;;;;;;;15.70;99.90;;;;;;5055564;28;19922;-71
2022/10/28 00:31:22;;;;;;;;;;;17.00;99.90;;;;;;5073061;28;19946;-71
2022/10/28 00:33:48;;;;;;;;;;;17.00;99.90;;;;;;5072818;28;19932;-71
2022/10/28 00:36:15;;;;;;;;;;;15.90;99.90;;;;;;5072231;28;19920;-71
2022/10/28 00:38:41;;;;;;;;;;;15.60;99.90;;;;;;5072906;28;20016;-71
2022/10/28 00:41:08;;;;;;;;;;;15.90;99.90;;;;;;5055201;28;20382;-71
2022/10/28 00:43:53;;;;;;;;;;;15.70;99.90;;;;;;5038336;28;19920;-71
2022/10/28 00:46:23;;;;;;;;;;;15.70;99.90;;;;;;5055053;28;19924;-71
2022/10/28 00:48:50;;;;;;;;;;;16.30;99.90;;;;;;5054861;28;19928;-71
2022/10/28 00:51:17;;;;;;;;;;;15.60;99.90;;;;;;5054794;28;19928;-72
2022/10/28 00:53:44;;;;;;;;;;;17.30;99.90;;;;;;5054379;28;20318;-72
2022/10/28 00:56:10;;;;;;;;;;;15.50;99.90;;;;;;5072383;28;19921;-72
2022/10/28 00:58:36;;;;;;;;;;;15.60;99.90;;;;;;5054734;28;19943;-71
2022/10/28 01:01:01;;;;;;;;;;;15.40;99.90;;;;;;5054643;28;20346;-72
2022/10/28 01:03:27;;;;;;;;;;;16.30;99.90;;;;;;5055417;28;19920;-72
2022/10/28 01:05:53;;;;;;;;;;;15.60;99.90;;;;;;5041364;28;20316;-72
2022/10/28 01:08:19;;;;;;;;;;;15.20;99.90;;;;;;5059581;28;19929;-72
2022/10/28 01:10:53;;;;;;;;;;;15.60;99.90;;;;;;5075915;28;19964;-72
2022/10/28 01:13:27;;;;;;;;;;;15.40;99.90;;;;;;5074348;28;20417;-72
2022/10/28 01:16:00;;;;;;;;;;;15.40;99.90;;;;;;5037343;28;19979;-71
2022/10/28 01:18:41;;;;;;;;;;;15.10;99.90;;;;;;5054654;28;19920;-72
2022/10/28 01:21:17;;;;;;;;;;;15.30;99.90;;;;;;5054111;28;20286;-71
2022/10/28 01:23:43;;;;;;;;;;;15.30;99.90;;;;;;5072157;28;20003;-71
2022/10/28 01:26:11;;;;;;;;;;;15.70;99.90;;;;;;5071361;28;20023;-71
2022/10/28 01:28:43;;;;;;;;;;;15.00;99.90;;;;;;5071801;28;20405;-71
2022/10/28 01:31:11;;;;;;;;;;;15.40;99.90;;;;;;5072385;28;19921;-73
2022/10/28 01:33:55;;;;;;;;;;;15.00;99.90;;;;;;5053876;28;19990;-72
2022/10/28 01:36:53;;;;;;;;;;;15.20;99.90;;;;;;5054170;28;19920;-71
2022/10/28 01:39:22;;;;;;;;;;;15.00;99.90;;;;;;4990698;28;19921;-72
2022/10/28 01:41:54;;;;;;;;;;;15.10;99.90;;;;;;5021959;28;19921;-71
2022/10/28 01:44:23;;;;;;;;;;;15.10;99.90;;;;;;5051422;28;19928;-71
2022/10/28 01:46:54;;;;;;;;;;;15.40;99.90;;;;;;5052043;28;19925;-71
2022/10/28 01:49:30;;;;;;;;;;;14.80;99.90;;;;;;5051983;28;20387;-72
2022/10/28 01:51:59;;;;;;;;;;;15.10;99.90;;;;;;5017880;28;20144;-71
2022/10/28 01:54:26;;;;;;;;;;;15.00;99.90;;;;;;5051310;28;20011;-71
2022/10/28 01:56:52;;;;;;;;;;;14.80;99.90;;;;;;5051998;28;19927;-71
2022/10/28 01:59:22;;;;;;;;;;;15.10;99.90;;;;;;5053798;28;19920;-71
2022/10/28 02:01:48;;;;;;;;;;;15.10;99.90;;;;;;5071624;28;20248;-71
2022/10/28 02:04:13;;;;;;;;;;;15.20;99.90;;;;;;5055620;28;19924;-71
2022/10/28 02:06:40;;;;;;;;;;;14.90;99.90;;;;;;5057972;28;19925;-72
2022/10/28 02:09:13;;;;;;;;;;;15.10;99.90;;;;;;5057964;28;19927;-71
2022/10/28 02:11:58;;;;;;;;;;;14.90;99.90;;;;;;5057749;28;20011;-71
2022/10/28 02:14:36;;;;;;;;;;;15.20;99.90;;;;;;5056752;28;20393;-71
2022/10/28 02:17:09;;;;;;;;;;;14.90;99.90;;;;;;5075774;28;19926;-71
2022/10/28 02:19:50;;;;;;;;;;;15.00;99.90;;;;;;5057875;28;19954;-71
2022/10/28 02:22:21;;;;;;;;;;;14.70;99.90;;;;;;5057737;28;19975;-71
2022/10/28 02:25:03;;;;;;;;;;;15.00;99.90;;;;;;5075065;28;19966;-71
2022/10/28 02:27:32;;;;;;;;;;;14.80;99.90;;;;;;5057648;28;20278;-71
2022/10/28 02:30:02;;;;;;;;;;;14.90;99.90;;;;;;5075659;28;19966;-71
2022/10/28 02:32:29;;;;;;;;;;;14.70;99.90;;;;;;5055550;28;21703;-71
2022/10/28 02:34:55;;;;;;;;;;;14.80;99.90;;;;;;5073987;28;19920;-71
2022/10/28 02:37:22;;;;;;;;;;;14.50;99.90;;;;;;5074888;28;19920;-71
2022/10/28 02:39:51;;;;;;;;;;;15.00;99.90;;;;;;5071666;28;20382;-71
2022/10/28 02:42:23;;;;;;;;;;;14.80;99.90;;;;;;5074999;28;20436;-72
2022/10/28 02:44:50;;;;;;;;;;;14.70;99.90;;;;;;5056710;28;19931;-71
2022/10/28 02:47:18;;;;;;;;;;;16.30;99.90;;;;;;5054932;28;19932;-71
2022/10/28 02:49:46;;;;;;;;;;;14.80;99.90;;;;;;5074006;28;19939;-71
2022/10/28 02:52:12;;;;;;;;;;;15.00;99.90;;;;;;5074842;28;19924;-72
2022/10/28 02:54:40;;;;;;;;;;;14.90;99.90;;;;;;5056826;28;20389;-71
2022/10/28 02:57:12;;;;;;;;;;;14.60;99.90;;;;;;5056927;28;20409;-71
2022/10/28 02:59:37;;;;;;;;;;;14.80;99.90;;;;;;5071839;28;20389;-72
2022/10/28 03:02:04;;;;;;;;;;;14.50;99.90;;;;;;5046663;28;19924;-71
2022/10/28 03:04:29;;;;;;;;;;;14.60;99.90;;;;;;5074152;28;19920;-72
2022/10/28 03:06:55;;;;;;;;;;;15.00;99.90;;;;;;5075047;28;20061;-72
2022/10/28 03:09:20;;;;;;;;;;;15.00;99.90;;;;;;5057175;28;20017;-71
2022/10/28 03:11:46;;;;;;;;;;;14.90;99.90;;;;;;5056832;28;19930;-71
2022/10/28 03:14:11;;;;;;;;;;;14.80;99.90;;;;;;5073692;28;19924;-71
2022/10/28 03:16:36;;;;;;;;;;;15.00;99.90;;;;;;5055573;28;19971;-71
2022/10/28 03:19:02;;;;;;;;;;;14.40;99.90;;;;;;5056610;28;19927;-71
2022/10/28 03:21:27;;;;;;;;;;;14.90;99.90;;;;;;5052796;28;19920;-71
2022/10/28 03:23:53;;;;;;;;;;;14.70;99.90;;;;;;5066309;28;19920;-71
2022/10/28 03:26:18;;;;;;;;;;;14.60;99.90;;;;;;5039767;28;19928;-72
2022/10/28 03:28:44;;;;;;;;;;;14.60;99.90;;;;;;5074402;28;19927;-71
2022/10/28 03:31:09;;;;;;;;;;;14.80;99.90;;;;;;5074203;28;20016;-71
2022/10/28 03:33:35;;;;;;;;;;;14.50;99.90;;;;;;5076243;28;19928;-71
2022/10/28 03:36:00;;;;;;;;;;;14.60;99.90;;;;;;5058938;28;19925;-72
2022/10/28 03:38:26;;;;;;;;;;;14.60;99.90;;;;;;5077187;28;19924;-71
2022/10/28 03:40:51;;;;;;;;;;;14.60;99.90;;;;;;5076302;28;19920;-71
2022/10/28 03:43:17;;;;;;;;;;;14.80;99.90;;;;;;5074400;28;20412;-71
2022/10/28 03:45:42;;;;;;;;;;;14.50;99.90;;;;;;5039024;28;20053;-71
2022/10/28 03:48:08;;;;;;;;;;;14.70;99.90;;;;;;5056237;28;20634;-71
2022/10/28 03:50:33;;;;;;;;;;;15.20;99.90;;;;;;5074079;28;19921;-71
2022/10/28 03:52:59;;;;;;;;;;;14.70;99.90;;;;;;5073904;28;20032;-71
2022/10/28 03:55:24;;;;;;;;;;;14.50;99.90;;;;;;5072445;28;19927;-71
2022/10/28 03:57:50;;;;;;;;;;;14.50;99.90;;;;;;5074039;28;20322;-71
2022/10/28 04:00:16;;;;;;;;;;;14.60;99.90;;;;;;5039466;28;20390;-71
2022/10/28 04:02:42;;;;;;;;;;;14.50;99.90;;;;;;5056034;28;20454;-71
2022/10/28 04:05:07;;;;;;;;;;;14.60;99.90;;;;;;5073244;28;19970;-71
2022/10/28 04:07:33;;;;;;;;;;;14.60;99.90;;;;;;5055477;28;20297;-71
2022/10/28 04:09:59;;;;;;;;;;;14.40;99.90;;;;;;5073941;28;19927;-72
2022/10/28 04:12:24;;;;;;;;;;;14.60;99.90;;;;;;5055846;28;19928;-71
2022/10/28 04:14:50;;;;;;;;;;;14.70;99.90;;;;;;5072730;28;19952;-71
2022/10/28 04:17:15;;;;;;;;;;;14.40;99.90;;;;;;5055163;28;19974;-71
2022/10/28 04:19:41;;;;;;;;;;;14.60;99.90;;;;;;5055133;28;19966;-71
2022/10/28 04:22:07;;;;;;;;;;;14.80;99.90;;;;;;5055164;28;19970;-71
2022/10/28 04:24:33;;;;;;;;;;;14.20;99.90;;;;;;5037632;28;20348;-71
2022/10/28 04:26:58;;;;;;;;;;;14.60;99.90;;;;;;5054751;28;20007;-71
2022/10/28 04:29:24;;;;;;;;;;;14.40;99.90;;;;;;5055585;28;19920;-71
2022/10/28 04:31:49;;;;;;;;;;;14.60;99.90;;;;;;5073080;28;20362;-71
2022/10/28 04:34:15;;;;;;;;;;;15.70;99.90;;;;;;5054682;28;20001;-72
2022/10/28 04:36:40;;;;;;;;;;;14.30;99.90;;;;;;5073160;28;19928;-71
2022/10/28 04:39:06;;;;;;;;;;;14.30;99.90;;;;;;5072980;28;19928;-71
2022/10/28 04:41:31;;;;;;;;;;;14.20;99.90;;;;;;5054603;28;20442;-71
2022/10/28 04:43:57;;;;;;;;;;;14.40;99.90;;;;;;5053907;28;19931;-71
2022/10/28 04:46:22;;;;;;;;;;;14.50;99.90;;;;;;5054833;28;19931;-71
2022/10/28 04:48:48;;;;;;;;;;;14.80;99.90;;;;;;5054795;28;19921;-71
2022/10/28 04:51:13;;;;;;;;;;;14.30;99.90;;;;;;5072811;28;19979;-71
2022/10/28 04:53:39;;;;;;;;;;;14.20;99.90;;;;;;5054973;28;20094;-71
2022/10/28 04:56:04;;;;;;;;;;;14.40;99.90;;;;;;5071939;28;20366;-71
2022/10/28 04:58:30;;;;;;;;;;;14.30;99.90;;;;;;5054353;28;19986;-72
2022/10/28 05:00:55;;;;;;;;;;;14.40;99.90;;;;;;5072261;28;19920;-71
2022/10/28 05:03:21;;;;;;;;;;;14.40;99.90;;;;;;5072660;28;20007;-71
2022/10/28 05:05:47;;;;;;;;;;;14.10;99.90;;;;;;5037140;28;20382;-71
2022/10/28 05:08:13;;;;;;;;;;;14.30;99.90;;;;;;5054560;28;20458;-71
2022/10/28 05:10:38;;;;;;;;;;;15.40;99.90;;;;;;5038168;28;19967;-71
2022/10/28 05:13:04;;;;;;;;;;;14.00;99.90;;;;;;5037840;28;19970;-72
2022/10/28 05:15:30;;;;;;;;;;;14.30;99.90;;;;;;5071112;28;19921;-71
2022/10/28 05:17:55;;;;;;;;;;;14.20;99.90;;;;;;5054914;28;19920;-73
2022/10/28 05:20:21;;;;;;;;;;;14.30;99.90;;;;;;5072309;28;20015;-71
2022/10/28 05:22:48;;;;;;;;;;;14.30;99.90;;;;;;5049482;28;19924;-71
2022/10/28 05:25:14;;;;;;;;;;;14.30;99.90;;;;;;5048271;28;20433;-71
2022/10/28 05:27:40;;;;;;;;;;;14.10;99.90;;;;;;5054032;28;20027;-71
2022/10/28 05:30:06;;;;;;;;;;;14.80;99.90;;;;;;5053621;28;19935;-71
2022/10/28 05:32:31;;;;;;;;;;;14.00;99.90;;;;;;5072221;28;20275;-71
2022/10/28 05:34:57;;;;;;;;;;;14.20;99.90;;;;;;5036669;28;20377;-71
2022/10/28 05:37:22;;;;;;;;;;;14.20;99.90;;;;;;5071870;28;19927;-71
2022/10/28 05:39:48;;;;;;;;;;;14.30;99.90;;;;;;5053876;28;20297;-71
2022/10/28 05:42:13;;;;;;;;;;;13.90;99.90;;;;;;5053905;28;19920;-71
2022/10/28 05:44:39;;;;;;;;;;;13.80;99.90;;;;;;5053186;28;19921;-71
2022/10/28 05:47:04;;;;;;;;;;;14.00;99.90;;;;;;5053640;28;20364;-71
2022/10/28 05:49:30;;;;;;;;;;;13.70;99.90;;;;;;5052953;28;20505;-71
2022/10/28 05:51:55;;;;;;;;;;;13.80;99.90;;;;;;5063961;28;19973;-71
2022/10/28 05:54:21;;;;;;;;;;;13.90;99.90;;;;;;5052453;28;19943;-71
2022/10/28 05:56:46;;;;;;;;;;;14.20;99.90;;;;;;5069593;28;19931;-71
2022/10/28 05:59:12;;;;;;;;;;;13.90;99.90;;;;;;5071063;28;19920;-72
2022/10/28 06:01:37;;;;;;;;;;;14.10;99.90;;;;;;5062621;28;19966;-71
2022/10/28 06:04:03;;;;;;;;;;;14.20;99.90;;;;;;5104328;22;19929;-72
2022/10/28 06:06:29;;;;;;;;;;;13.90;99.90;;;;;;5061837;28;20405;-71
2022/10/28 06:08:55;;;;;;;;;;;13.70;99.90;;;;;;5063464;28;20412;-72
2022/10/28 06:11:20;;;;;;;;;;;13.80;99.90;;;;;;5074036;28;20397;-72
2022/10/28 06:13:46;;;;;;;;;;;13.90;99.90;;;;;;5091680;28;19921;-72
2022/10/28 06:16:11;;;;;;;;;;;14.30;99.90;;;;;;5073612;28;19931;-71
2022/10/28 06:18:37;;;;;;;;;;;13.90;99.90;;;;;;5073818;28;20522;-72
2022/10/28 06:21:03;;;;;;;;;;;14.30;99.90;;;;;;5073688;28;19920;-72
2022/10/28 06:23:28;;;;;;;;;;;13.90;99.90;;;;;;5074054;28;19927;-73
2022/10/28 06:25:57;;;;;;;;;;;14.10;99.90;;;;;;5091126;28;19973;-72
2022/10/28 06:28:23;;;;;;;;;;;13.80;99.90;;;;;;5073825;28;19927;-74
2022/10/28 06:30:48;;;;;;;;;;;13.90;99.90;;;;;;5073881;28;19919;-72
2022/10/28 06:33:14;;;;;;;;;;;14.40;99.90;;;;;;5073260;28;19926;-72
2022/10/28 06:35:39;;;;;;;;;;;13.90;99.90;;;;;;5072502;28;20344;-72
2022/10/28 06:38:05;;;;;;;;;;;14.10;99.90;;;;;;5072861;28;19927;-73
2022/10/28 06:40:30;;;;;;;;;;;14.00;99.90;;;;;;5073061;28;19959;-72
2022/10/28 06:43:03;;;;;;;;;;;13.80;99.90;;;;;;5091469;28;19923;-73
2022/10/28 06:45:29;;;;;;;;;;;13.80;99.90;;;;;;5072820;28;20355;-72
2022/10/28 06:47:59;;;;;;;;;;;14.00;99.90;;;;;;5073564;28;20450;-73
2022/10/28 06:50:25;;;;;;;;;;;13.90;99.90;;;;;;5094066;28;19924;-72
2022/10/28 06:52:50;;;;;;;;;;;13.90;99.90;;;;;;5076820;28;19964;-72
2022/10/28 06:55:16;;;;;;;;;;;13.90;99.90;;;;;;5094563;28;20394;-73
2022/10/28 06:57:42;;;;;;;;;;;14.20;99.90;;;;;;5073762;28;19924;-72
2022/10/28 07:00:07;;;;;;;;;;;13.80;99.90;;;;;;5095215;28;20287;-72
2022/10/28 07:02:33;;;;;;;;;;;14.20;99.90;;;;;;5094769;28;20373;-72
2022/10/28 07:04:58;;;;;;;;;;;14.10;99.90;;;;;;5076171;28;19924;-73
2022/10/28 07:07:24;;;;;;;;;;;14.00;99.90;;;;;;5094880;28;20007;-72
2022/10/28 07:09:49;;;;;;;;;;;14.10;99.90;;;;;;5095018;28;20404;-72
2022/10/28 07:12:15;;;;;;;;;;;14.10;99.90;;;;;;5076741;28;19926;-72
2022/10/28 07:14:40;;;;;;;;;;;14.40;99.90;;;;;;5098137;28;19966;-72
2022/10/28 07:17:06;;;;;;;;;;;14.00;99.90;;;;;;5071374;28;20348;-72
2022/10/28 07:19:31;;;;;;;;;;;14.50;99.90;;;;;;5068393;28;19950;-72
2022/10/28 07:21:57;;;;;;;;;;;14.10;99.90;;;;;;5063550;28;19950;-72
2022/10/28 07:24:22;;;;;;;;;;;14.70;99.90;;;;;;5070518;28;19982;-72
2022/10/28 07:26:48;;;;;;;;;;;14.40;99.90;;;;;;5086928;28;19932;-71
2022/10/28 07:29:14;;;;;;;;;;;14.40;99.90;;;;;;5072159;28;19928;-71
2022/10/28 07:31:39;;;;;;;;;;;14.60;99.90;;;;;;5077494;28;19924;-71
2022/10/28 07:34:05;;;;;;;;;;;14.60;99.90;;;;;;5066588;28;20423;-71
2022/10/28 07:36:30;;;;;;;;;;;15.10;99.90;;;;;;5054719;28;19924;-71
2022/10/28 07:38:56;;;;;;;;;;;15.90;99.90;;;;;;5086969;28;19931;-72
2022/10/28 07:41:21;;;;;;;;;;;14.80;99.90;;;;;;5064716;28;19971;-72
2022/10/28 07:43:47;;;;;;;;;;;14.90;99.90;;;;;;5069080;28;20000;-75
2022/10/28 07:46:13;;;;;;;;;;;15.40;99.90;;;;;;5051884;28;20389;-71
2022/10/28 07:48:38;;;;;;;;;;;15.60;99.90;;;;;;5076201;28;19963;-72
2022/10/28 07:51:04;;;;;;;;;;;15.30;99.90;;;;;;5091529;28;20371;-75
2022/10/28 07:53:30;;;;;;;;;;;15.40;99.90;;;;;;5075673;28;19927;-72
2022/10/28 07:55:59;;;;;;;;;;;15.40;99.90;;;;;;5093122;28;19921;-71
2022/10/28 07:58:24;;;;;;;;;;;15.50;99.90;;;;;;5074734;28;20007;-72
2022/10/28 08:00:50;;;;;;;;;;;15.70;99.90;;;;;;5075192;28;20457;-72
2022/10/28 08:03:16;;;;;;;;;;;15.50;99.90;;;;;;5065371;28;19920;-72
2022/10/28 08:05:41;;;;;;;;;;;15.60;99.90;;;;;;5073363;28;19920;-72
2022/10/28 08:08:07;;;;;;;;;;;15.70;99.90;;;;;;5086676;28;19969;-72
2022/10/28 08:10:32;;;;;;;;;;;15.80;99.90;;;;;;5092051;28;19920;-72
2022/10/28 08:12:59;;;;;;;;;;;15.40;99.90;;;;;;5072605;28;19924;-74
2022/10/28 08:15:25;;;;;;;;;;;15.90;99.90;;;;;;5089011;28;19927;-73
2022/10/28 08:17:51;;;;;;;;;;;15.90;99.90;;;;;;5074809;28;19920;-73
2022/10/28 08:20:17;;;;;;;;;;;16.10;99.90;;;;;;5096926;28;20382;-72
2022/10/28 08:22:42;;;;;;;;;;;16.10;99.90;;;;;;5068137;28;20008;-73
2022/10/28 08:25:08;;;;;;;;;;;16.10;99.90;;;;;;5054243;28;19921;-73
2022/10/28 08:27:33;;;;;;;;;;;16.30;99.90;;;;;;5072002;28;19958;-73
2022/10/28 08:29:59;;;;;;;;;;;17.70;99.90;;;;;;5073648;28;19942;-73
2022/10/28 08:32:24;;;;;;;;;;;16.20;99.90;;;;;;5072298;28;19920;-74
2022/10/28 08:34:50;;;;;;;;;;;16.30;99.90;;;;;;5073581;28;20459;-72
2022/10/28 08:37:15;;;;;;;;;;;16.30;99.90;;;;;;5092816;28;19926;-73
2022/10/28 08:39:41;;;;;;;;;;;16.50;99.90;;;;;;5092960;28;20539;-72
2022/10/28 08:42:19;;;;;;;;;;;16.20;99.90;;;;;;5074714;28;19931;-73
2022/10/28 08:44:59;;;;;;;;;;;16.30;99.90;;;;;;5091508;28;19919;-73
2022/10/28 08:47:31;;;;;;;;;;;16.30;99.90;;;;;;5074485;28;20384;-73
2022/10/28 08:50:00;;;;;;;;;;;16.40;99.90;;;;;;5074265;28;19974;-72
2022/10/28 08:52:32;;;;;;;;;;;16.80;99.90;;;;;;5074740;28;20385;-73
2022/10/28 08:55:05;;;;;;;;;;;16.30;99.90;;;;;;5091861;28;19960;-72
2022/10/28 08:57:37;;;;;;;;;;;16.30;99.90;;;;;;5092458;28;19927;-73
2022/10/28 09:00:04;;;;;;;;;;;16.50;99.90;;;;;;5073639;28;19969;-73
2022/10/28 09:02:34;;;;;;;;;;;16.60;99.90;;;;;;5085430;28;20011;-73
2022/10/28 09:05:16;;;;;;;;;;;17.70;99.90;;;;;;5053472;28;20318;-73
2022/10/28 09:07:41;;;;;;;;;;;16.60;99.90;;;;;;5054056;28;19925;-73
2022/10/28 09:10:07;;;;;;;;;;;16.60;99.90;;;;;;5054415;28;19959;-73
2022/10/28 09:12:48;;;;;;;;;;;16.60;99.90;;;;;;5061767;28;20361;-72
2022/10/28 09:15:33;;;;;;;;;;;16.50;99.90;;;;;;5073024;28;20014;-72
2022/10/28 09:18:16;;;;;;;;;;;16.70;99.90;;;;;;5072149;28;20332;-73
2022/10/28 09:20:51;;;;;;;;;;;16.50;99.90;;;;;;5074281;28;20343;-72
2022/10/28 09:23:25;;;;;;;;;;;16.40;99.90;;;;;;5092349;28;20318;-73
2022/10/28 09:26:10;;;;;;;;;;;16.40;99.90;;;;;;5073394;28;19970;-72
2022/10/28 09:28:47;;;;;;;;;;;16.50;99.90;;;;;;5053871;28;20452;-74
2022/10/28 09:31:13;;;;;;;;;;;16.60;99.90;;;;;;5053978;28;19927;-73
2022/10/28 09:33:57;;;;;;;;;;;16.50;99.90;;;;;;5078595;28;19920;-73
2022/10/28 09:36:26;;;;;;;;;;;16.80;99.90;;;;;;5074032;28;20290;-73
2022/10/28 09:38:54;;;;;;;;;;;17.20;99.90;;;;;;5091689;28;19933;-73
2022/10/28 09:41:24;;;;;;;;;;;16.70;99.90;;;;;;5073706;28;19927;-73
2022/10/28 09:44:00;;;;;;;;;;;16.80;99.90;;;;;;5091237;28;19955;-73
2022/10/28 09:46:27;;;;;;;;;;;16.60;99.90;;;;;;5073267;28;19931;-73
2022/10/28 09:48:55;;;;;;;;;;;16.80;99.90;;;;;;5091823;28;20007;-73
2022/10/28 09:51:42;;;;;;;;;;;16.80;99.90;;;;;;5091547;28;20039;-74
2022/10/28 09:54:08;;;;;;;;;;;16.90;99.90;;;;;;5073154;28;20298;-73
2022/10/28 09:56:34;;;;;;;;;;;17.00;99.90;;;;;;5073623;28;20003;-74
2022/10/28 09:59:01;;;;;;;;;;;16.90;99.90;;;;;;5073534;28;20021;-73
2022/10/28 10:01:30;;;;;;;;;;;19.00;99.90;;;;;;5073131;28;19966;-73
2022/10/28 10:03:56;;;;;;;;;;;17.10;99.90;;;;;;5072791;28;20266;-73
2022/10/28 10:06:37;;;;;;;;;;;17.10;99.90;;;;;;5091160;28;19952;-73
2022/10/28 10:09:03;;;;;;;;;;;17.20;99.90;;;;;;5073607;28;20297;-73
2022/10/28 10:11:35;;;;;;;;;;;17.20;99.90;;;;;;5073285;28;19927;-74
2022/10/28 10:14:03;;;;;;;;;;;17.10;99.90;;;;;;5090823;28;19931;-73
2022/10/28 10:16:38;;;;;;;;;;;17.30;99.90;;;;;;5057199;28;19920;-74
2022/10/28 10:19:05;;;;;;;;;;;17.50;99.90;;;;;;5073445;28;20019;-74
2022/10/28 10:21:46;;;;;;;;;;;19.10;99.90;;;;;;5091745;28;20385;-73
2022/10/28 10:24:22;;;;;;;;;;;17.40;99.90;;;;;;5072919;28;19924;-73
2022/10/28 10:26:47;;;;;;;;;;;17.60;99.90;;;;;;5077244;28;19971;-73
2022/10/28 10:29:13;;;;;;;;;;;17.80;99.90;;;;;;5095435;28;20412;-73
2022/10/28 10:31:38;;;;;;;;;;;17.80;99.90;;;;;;5077172;28;19923;-73
2022/10/28 10:34:04;;;;;;;;;;;18.40;99.90;;;;;;5076389;28;19924;-74
2022/10/28 10:36:30;;;;;;;;;;;18.90;99.90;;;;;;5077167;28;19988;-74
2022/10/28 10:39:00;;;;;;;;;;;17.70;99.90;;;;;;5077106;28;20343;-73
2022/10/28 10:41:32;;;;;;;;;;;17.80;99.90;;;;;;5077003;28;19920;-74
2022/10/28 10:43:57;;;;;;;;;;;17.80;99.90;;;;;;5076093;28;20014;-73
2022/10/28 10:46:23;;;;;;;;;;;18.40;99.90;;;;;;5076768;28;20020;-74
2022/10/28 10:49:05;;;;;;;;;;;17.90;99.90;;;;;;5074598;28;19920;-74
2022/10/28 10:51:30;;;;;;;;;;;18.20;99.90;;;;;;5076736;28;20007;-74
2022/10/28 10:53:59;;;;;;;;;;;18.10;99.90;;;;;;5093496;28;19974;-74
2022/10/28 10:56:34;;;;;;;;;;;18.70;99.90;;;;;;5094976;28;19920;-74
2022/10/28 10:59:19;;;;;;;;;;;18.30;99.90;;;;;;5095058;28;19931;-73
2022/10/28 11:01:45;;;;;;;;;;;18.20;99.90;;;;;;5076763;28;19927;-73
2022/10/28 11:04:21;;;;;;;;;;;18.40;99.90;;;;;;5075691;28;19928;-74
2022/10/28 11:06:53;;;;;;;;;;;18.50;99.90;;;;;;5110307;28;19924;-74
2022/10/28 11:09:19;;;;;;;;;;;18.40;99.90;;;;;;5076539;28;19942;-74
2022/10/28 11:11:44;;;;;;;;;;;19.10;99.90;;;;;;5072226;28;19928;-73
2022/10/28 11:14:12;;;;;;;;;;;18.80;99.90;;;;;;5093224;28;20932;-73
2022/10/28 11:16:46;;;;;;;;;;;18.70;99.90;;;;;;5092851;28;20412;-74
2022/10/28 11:19:17;;;;;;;;;;;18.80;99.90;;;;;;5076197;28;19980;-74
2022/10/28 11:21:43;;;;;;;;;;;18.60;99.90;;;;;;5094506;28;19920;-74
2022/10/28 11:24:44;;;;;;;;;;;19.60;99.90;;;;;;5060034;28;19931;-72
2022/10/28 11:27:26;;;;;;;;;;;18.80;99.90;;;;;;5026757;28;20426;-73
2022/10/28 11:29:52;;;;;;;;;;;18.80;99.90;;;;;;5082846;28;20302;-73
2022/10/28 11:32:46;;;;;;;;;;;18.70;99.90;;;;;;5071956;28;19924;-73
2022/10/28 11:35:14;;;;;;;;;;;18.80;99.90;;;;;;5046696;28;20392;-73
2022/10/28 11:37:48;;;;;;;;;;;19.20;99.90;;;;;;5070945;28;19924;-73
2022/10/28 11:40:26;;;;;;;;;;;19.30;99.90;;;;;;5068592;28;19924;-73
2022/10/28 11:43:07;;;;;;;;;;;19.30;99.90;;;;;;5085466;28;19928;-73
2022/10/28 11:45:32;;;;;;;;;;;19.30;99.90;;;;;;5070986;28;19931;-73
2022/10/28 11:48:16;;;;;;;;;;;19.40;99.90;;;;;;5073902;28;19950;-73
2022/10/28 11:50:51;;;;;;;;;;;19.50;99.90;;;;;;5078368;28;19920;-73
2022/10/28 11:53:24;;;;;;;;;;;19.50;99.90;;;;;;5075075;28;20637;-73
2022/10/28 11:55:56;;;;;;;;;;;19.50;99.90;;;;;;5091549;28;19982;-73
2022/10/28 11:58:35;;;;;;;;;;;19.40;99.90;;;;;;5075342;28;19924;-73
2022/10/28 12:01:19;;;;;;;;;;;19.30;99.90;;;;;;5073832;28;19920;-73
2022/10/28 12:03:52;;;;;;;;;;;19.30;99.90;;;;;;5073604;28;19924;-72
2022/10/28 12:06:27;;;;;;;;;;;19.40;99.90;;;;;;5074686;28;19928;-74
2022/10/28 12:09:02;;;;;;;;;;;19.20;99.90;;;;;;5093400;28;19924;-74
2022/10/28 12:11:38;;;;;;;;;;;19.10;99.90;;;;;;5093374;28;19920;-73
2022/10/28 12:14:10;;;;;;;;;;;19.20;99.90;;;;;;5074685;28;20124;-73
2022/10/28 12:16:55;;;;;;;;;;;19.20;99.90;;;;;;5093061;28;19921;-73
2022/10/28 12:19:25;;;;;;;;;;;19.30;99.90;;;;;;5074799;28;19920;-73
2022/10/28 12:21:54;;;;;;;;;;;19.20;99.90;;;;;;5075028;28;19959;-73
2022/10/28 12:24:21;;;;;;;;;;;19.20;99.90;;;;;;5072459;28;19924;-73
2022/10/28 12:26:49;;;;;;;;;;;19.20;99.90;;;;;;5080457;28;19924;-73
2022/10/28 12:29:14;;;;;;;;;;;19.30;99.90;;;;;;5092861;28;19920;-73
2022/10/28 12:31:43;;;;;;;;;;;19.20;99.90;;;;;;5074660;28;20058;-73
2022/10/28 12:34:12;;;;;;;;;;;19.00;99.90;;;;;;5056959;28;19963;-73
2022/10/28 12:36:47;;;;;;;;;;;19.40;99.90;;;;;;5074876;28;19926;-73
2022/10/28 12:39:18;;;;;;;;;;;19.30;99.90;;;;;;5074750;28;19931;-73
2022/10/28 12:41:56;;;;;;;;;;;19.30;99.90;;;;;;5093078;28;19927;-73
2022/10/28 12:44:23;;;;;;;;;;;19.30;99.90;;;;;;5091562;28;19920;-73
2022/10/28 12:47:00;;;;;;;;;;;19.80;99.90;;;;;;5074514;28;20139;-73
2022/10/28 12:49:44;;;;;;;;;;;19.30;99.90;;;;;;5092989;28;20053;-73
2022/10/28 12:52:28;;;;;;;;;;;19.40;99.90;;;;;;5092704;28;19930;-73
2022/10/28 12:54:54;;;;;;;;;;;19.30;99.90;;;;;;5073423;28;20385;-73
2022/10/28 12:57:21;;;;;;;;;;;19.80;99.90;;;;;;5057832;28;19920;-74
2022/10/28 12:59:50;;;;;;;;;;;19.60;99.90;;;;;;5092810;28;19920;-74
2022/10/28 13:02:20;;;;;;;;;;;19.90;99.90;;;;;;5092266;28;20004;-74
2022/10/28 13:04:45;;;;;;;;;;;20.00;99.90;;;;;;5073324;28;19920;-73
2022/10/28 13:07:29;;;;;;;;;;;19.90;99.90;;;;;;5092241;28;19928;-73
2022/10/28 13:09:55;;;;;;;;;;;19.60;99.90;;;;;;5074450;28;19920;-73
2022/10/28 13:12:31;;;;;;;;;;;19.80;99.90;;;;;;5092488;28;20408;-73
2022/10/28 13:15:04;;;;;;;;;;;19.70;99.90;;;;;;5091620;28;19920;-73
2022/10/28 13:17:45;;;;;;;;;;;19.80;99.90;;;;;;5092209;28;19924;-73
2022/10/28 13:20:25;;;;;;;;;;;19.60;99.90;;;;;;5092183;28;19935;-73
2022/10/28 13:23:02;;;;;;;;;;;19.80;99.90;;;;;;5073845;28;19919;-73
2022/10/28 13:25:27;;;;;;;;;;;19.70;99.90;;;;;;5073311;28;19920;-73
2022/10/28 13:27:54;;;;;;;;;;;19.40;99.90;;;;;;5092103;28;19931;-74
2022/10/28 13:30:21;;;;;;;;;;;19.70;99.90;;;;;;5072273;28;19927;-73
2022/10/28 13:32:51;;;;;;;;;;;20.00;99.90;;;;;;5091684;28;19920;-74
2022/10/28 13:35:19;;;;;;;;;;;20.10;99.90;;;;;;5073161;28;20290;-73
2022/10/28 13:37:46;;;;;;;;;;;19.70;99.90;;;;;;5073692;28;20293;-74
2022/10/28 13:40:40;;;;;;;;;;;19.80;99.90;;;;;;5073509;28;20370;-73
2022/10/28 13:43:16;;;;;;;;;;;19.60;99.90;;;;;;5071916;28;19920;-74
2022/10/28 13:45:52;;;;;;;;;;;19.40;99.90;;;;;;5089335;28;19931;-73
2022/10/28 13:48:36;;;;;;;;;;;19.40;99.90;;;;;;5071182;28;19925;-74
2022/10/28 13:51:07;;;;;;;;;;;19.40;99.90;;;;;;5072794;28;19924;-73
2022/10/28 13:53:39;;;;;;;;;;;19.40;99.90;;;;;;5091910;28;19920;-73
2022/10/28 13:56:17;;;;;;;;;;;19.20;99.90;;;;;;5091168;28;19920;-73
2022/10/28 13:58:50;;;;;;;;;;;19.30;99.90;;;;;;5073621;28;19924;-73
2022/10/28 14:01:38;;;;;;;;;;;19.30;99.90;;;;;;5095535;28;19920;-73
2022/10/28 14:04:04;;;;;;;;;;;19.40;99.90;;;;;;5066489;28;19923;-73
2022/10/28 14:06:31;;;;;;;;;;;19.30;99.90;;;;;;5092460;28;19924;-73
2022/10/28 14:08:56;;;;;;;;;;;19.40;99.90;;;;;;5095493;28;20389;-73
2022/10/28 14:11:23;;;;;;;;;;;19.40;99.90;;;;;;5077982;28;19946;-73
2022/10/28 14:13:49;;;;;;;;;;;19.20;99.90;;;;;;5077257;28;19975;-73
2022/10/28 14:16:35;;;;;;;;;;;19.20;99.90;;;;;;5076926;28;19971;-73
2022/10/28 14:19:10;;;;;;;;;;;19.20;99.90;;;;;;5095691;28;20323;-73
2022/10/28 14:21:54;;;;;;;;;;;19.10;99.90;;;;;;5095699;28;20352;-73
2022/10/28 14:24:28;;;;;;;;;;;19.10;99.90;;;;;;5076527;28;20015;-73
2022/10/28 14:27:14;;;;;;;;;;;19.20;99.90;;;;;;5073429;28;19982;-73
2022/10/28 14:29:43;;;;;;;;;;;19.00;99.90;;;;;;5077254;28;19920;-73